sensor_id;sensor_type;location;lat;lon;timestamp;temperature;humidity
66740;DHT22;53653;52.188;8.602;2024-02-16T00:00:26;11.28;89.11
66740;DHT22;53653;52.188;8.602;2024-02-16T00:02:52;11.21;89.25
66740;DHT22;53653;52.188;8.602;2024-02-16T00:05:17;11.18;89.37
66740;DHT22;53653;52.188;8.602;2024-02-16T00:07:43;11.21;89.31
66740;DHT22;53653;52.188;8.602;2024-02-16T00:10:09;11.18;89.21
66740;DHT22;53653;52.188;8.602;2024-02-16T00:12:35;11.17;89.40
66740;DHT22;53653;52.188;8.602;2024-02-16T00:15:03;11.12;89.42
66740;DHT22;53653;52.188;8.602;2024-02-16T00:17:29;11.11;89.44
66740;DHT22;53653;52.188;8.602;2024-02-16T00:19:55;11.17;89.29
66740;DHT22;53653;52.188;8.602;2024-02-16T00:22:21;11.15;89.24
66740;DHT22;53653;52.188;8.602;2024-02-16T00:24:47;11.18;89.05
66740;DHT22;53653;52.188;8.602;2024-02-16T00:27:13;11.12;89.30
66740;DHT22;53653;52.188;8.602;2024-02-16T00:29:39;11.08;89.50
66740;DHT22;53653;52.188;8.602;2024-02-16T00:32:05;11.10;89.40
66740;DHT22;53653;52.188;8.602;2024-02-16T00:34:35;11.05;89.50
66740;DHT22;53653;52.188;8.602;2024-02-16T00:37:01;11.12;89.23
66740;DHT22;53653;52.188;8.602;2024-02-16T00:39:26;11.11;89.17
66740;DHT22;53653;52.188;8.602;2024-02-16T00:41:52;11.12;89.18
66740;DHT22;53653;52.188;8.602;2024-02-16T00:44:18;11.08;89.23
66740;DHT22;53653;52.188;8.602;2024-02-16T00:46:46;11.04;89.38
66740;DHT22;53653;52.188;8.602;2024-02-16T00:49:12;11.04;89.38
66740;DHT22;53653;52.188;8.602;2024-02-16T00:51:38;11.04;89.31
66740;DHT22;53653;52.188;8.602;2024-02-16T00:54:04;11.07;89.19
66740;DHT22;53653;52.188;8.602;2024-02-16T00:56:32;11.01;89.41
66740;DHT22;53653;52.188;8.602;2024-02-16T00:58:58;11.03;89.47
66740;DHT22;53653;52.188;8.602;2024-02-16T01:01:24;10.98;89.37
66740;DHT22;53653;52.188;8.602;2024-02-16T01:03:51;10.98;89.46
66740;DHT22;53653;52.188;8.602;2024-02-16T01:06:17;10.94;89.50
66740;DHT22;53653;52.188;8.602;2024-02-16T01:08:43;10.94;89.47
66740;DHT22;53653;52.188;8.602;2024-02-16T01:11:08;10.96;89.39
66740;DHT22;53653;52.188;8.602;2024-02-16T01:13:34;10.93;89.53
66740;DHT22;53653;52.188;8.602;2024-02-16T01:15:59;10.90;89.57
66740;DHT22;53653;52.188;8.602;2024-02-16T01:18:27;10.91;89.55
66740;DHT22;53653;52.188;8.602;2024-02-16T01:20:53;10.87;89.65
66740;DHT22;53653;52.188;8.602;2024-02-16T01:23:20;10.88;89.58
66740;DHT22;53653;52.188;8.602;2024-02-16T01:25:45;10.78;89.85
66740;DHT22;53653;52.188;8.602;2024-02-16T01:28:12;10.78;89.82
66740;DHT22;53653;52.188;8.602;2024-02-16T01:30:38;10.78;89.89
66740;DHT22;53653;52.188;8.602;2024-02-16T01:33:04;10.77;89.95
66740;DHT22;53653;52.188;8.602;2024-02-16T01:35:31;10.73;89.94
66740;DHT22;53653;52.188;8.602;2024-02-16T01:37:57;10.73;89.95
66740;DHT22;53653;52.188;8.602;2024-02-16T01:40:23;10.71;89.93
66740;DHT22;53653;52.188;8.602;2024-02-16T01:42:51;10.63;90.29
66740;DHT22;53653;52.188;8.602;2024-02-16T01:45:18;10.64;90.25
66740;DHT22;53653;52.188;8.602;2024-02-16T01:47:44;10.61;90.22
66740;DHT22;53653;52.188;8.602;2024-02-16T01:50:12;10.61;90.09
66740;DHT22;53653;52.188;8.602;2024-02-16T01:52:38;10.60;90.09
66740;DHT22;53653;52.188;8.602;2024-02-16T01:55:04;10.63;90.16
66740;DHT22;53653;52.188;8.602;2024-02-16T01:57:33;10.60;90.16
66740;DHT22;53653;52.188;8.602;2024-02-16T01:59:58;10.56;90.28
66740;DHT22;53653;52.188;8.602;2024-02-16T02:02:24;10.57;90.37
66740;DHT22;53653;52.188;8.602;2024-02-16T02:04:50;10.52;90.43
66740;DHT22;53653;52.188;8.602;2024-02-16T02:07:16;10.43;90.88
66740;DHT22;53653;52.188;8.602;2024-02-16T02:09:42;10.42;90.90
66740;DHT22;53653;52.188;8.602;2024-02-16T02:12:08;10.42;90.75
66740;DHT22;53653;52.188;8.602;2024-02-16T02:14:35;10.42;90.84
66740;DHT22;53653;52.188;8.602;2024-02-16T02:17:00;10.38;90.84
66740;DHT22;53653;52.188;8.602;2024-02-16T02:19:26;10.40;90.71
66740;DHT22;53653;52.188;8.602;2024-02-16T02:21:52;10.40;90.74
66740;DHT22;53653;52.188;8.602;2024-02-16T02:24:17;10.39;90.71
66740;DHT22;53653;52.188;8.602;2024-02-16T02:26:43;10.40;90.63
66740;DHT22;53653;52.188;8.602;2024-02-16T02:29:08;10.39;90.60
66740;DHT22;53653;52.188;8.602;2024-02-16T02:31:34;10.40;90.43
66740;DHT22;53653;52.188;8.602;2024-02-16T02:34:00;10.42;90.56
66740;DHT22;53653;52.188;8.602;2024-02-16T02:36:26;10.40;90.48
66740;DHT22;53653;52.188;8.602;2024-02-16T02:38:51;10.45;90.32
66740;DHT22;53653;52.188;8.602;2024-02-16T02:41:17;10.46;90.15
66740;DHT22;53653;52.188;8.602;2024-02-16T02:43:45;10.48;90.06
66740;DHT22;53653;52.188;8.602;2024-02-16T02:46:17;10.45;90.27
66740;DHT22;53653;52.188;8.602;2024-02-16T02:48:43;10.45;89.97
66740;DHT22;53653;52.188;8.602;2024-02-16T02:51:09;10.46;90.00
66740;DHT22;53653;52.188;8.602;2024-02-16T02:53:35;10.48;89.91
66740;DHT22;53653;52.188;8.602;2024-02-16T02:56:01;10.52;89.68
66740;DHT22;53653;52.188;8.602;2024-02-16T02:58:27;10.50;89.74
66740;DHT22;53653;52.188;8.602;2024-02-16T03:00:53;10.49;89.90
66740;DHT22;53653;52.188;8.602;2024-02-16T03:03:20;10.50;89.90
66740;DHT22;53653;52.188;8.602;2024-02-16T03:05:45;10.46;89.87
66740;DHT22;53653;52.188;8.602;2024-02-16T03:08:11;10.48;89.75
66740;DHT22;53653;52.188;8.602;2024-02-16T03:10:37;10.55;89.57
66740;DHT22;53653;52.188;8.602;2024-02-16T03:13:02;10.55;89.48
66740;DHT22;53653;52.188;8.602;2024-02-16T03:15:28;10.55;89.38
66740;DHT22;53653;52.188;8.602;2024-02-16T03:17:57;10.55;89.42
66740;DHT22;53653;52.188;8.602;2024-02-16T03:20:22;10.55;89.44
66740;DHT22;53653;52.188;8.602;2024-02-16T03:22:48;10.50;89.53
66740;DHT22;53653;52.188;8.602;2024-02-16T03:25:14;10.53;89.36
66740;DHT22;53653;52.188;8.602;2024-02-16T03:27:40;10.53;89.23
66740;DHT22;53653;52.188;8.602;2024-02-16T03:30:07;10.56;89.12
66740;DHT22;53653;52.188;8.602;2024-02-16T03:32:33;10.55;89.11
66740;DHT22;53653;52.188;8.602;2024-02-16T03:34:58;10.55;89.16
66740;DHT22;53653;52.188;8.602;2024-02-16T03:37:24;10.46;89.30
66740;DHT22;53653;52.188;8.602;2024-02-16T03:39:50;10.52;89.11
66740;DHT22;53653;52.188;8.602;2024-02-16T03:42:16;10.55;88.84
66740;DHT22;53653;52.188;8.602;2024-02-16T03:44:43;10.52;88.92
66740;DHT22;53653;52.188;8.602;2024-02-16T03:47:09;10.52;88.78
66740;DHT22;53653;52.188;8.602;2024-02-16T03:49:34;10.55;88.41
66740;DHT22;53653;52.188;8.602;2024-02-16T03:52:00;10.57;88.40
66740;DHT22;53653;52.188;8.602;2024-02-16T03:54:26;10.59;88.28
66740;DHT22;53653;52.188;8.602;2024-02-16T03:56:55;10.61;88.04
66740;DHT22;53653;52.188;8.602;2024-02-16T03:59:20;10.61;88.06
66740;DHT22;53653;52.188;8.602;2024-02-16T04:01:46;10.59;88.14
66740;DHT22;53653;52.188;8.602;2024-02-16T04:04:11;10.60;88.02
66740;DHT22;53653;52.188;8.602;2024-02-16T04:06:38;10.61;87.86
66740;DHT22;53653;52.188;8.602;2024-02-16T04:09:03;10.61;87.87
66740;DHT22;53653;52.188;8.602;2024-02-16T04:11:31;10.61;87.93
66740;DHT22;53653;52.188;8.602;2024-02-16T04:13:57;10.61;87.90
66740;DHT22;53653;52.188;8.602;2024-02-16T04:16:23;10.63;87.70
66740;DHT22;53653;52.188;8.602;2024-02-16T04:18:50;10.68;87.51
66740;DHT22;53653;52.188;8.602;2024-02-16T04:21:15;10.71;87.35
66740;DHT22;53653;52.188;8.602;2024-02-16T04:23:42;10.71;87.32
66740;DHT22;53653;52.188;8.602;2024-02-16T04:26:07;10.70;87.46
66740;DHT22;53653;52.188;8.602;2024-02-16T04:28:33;10.68;87.68
66740;DHT22;53653;52.188;8.602;2024-02-16T04:30:59;10.67;87.50
66740;DHT22;53653;52.188;8.602;2024-02-16T04:33:24;10.66;87.66
66740;DHT22;53653;52.188;8.602;2024-02-16T04:35:49;10.68;87.56
66740;DHT22;53653;52.188;8.602;2024-02-16T04:38:16;10.68;87.55
66740;DHT22;53653;52.188;8.602;2024-02-16T04:40:42;10.73;87.35
66740;DHT22;53653;52.188;8.602;2024-02-16T04:43:07;10.76;87.02
66740;DHT22;53653;52.188;8.602;2024-02-16T04:45:33;10.76;86.95
66740;DHT22;53653;52.188;8.602;2024-02-16T04:48:07;10.78;87.04
66740;DHT22;53653;52.188;8.602;2024-02-16T04:50:33;10.78;87.06
66740;DHT22;53653;52.188;8.602;2024-02-16T04:52:59;10.77;87.04
66740;DHT22;53653;52.188;8.602;2024-02-16T04:55:24;10.81;86.80
66740;DHT22;53653;52.188;8.602;2024-02-16T04:57:50;10.77;87.03
66740;DHT22;53653;52.188;8.602;2024-02-16T05:00:16;10.73;87.16
66740;DHT22;53653;52.188;8.602;2024-02-16T05:02:42;10.74;87.20
66740;DHT22;53653;52.188;8.602;2024-02-16T05:05:07;10.70;87.17
66740;DHT22;53653;52.188;8.602;2024-02-16T05:07:33;10.74;87.05
66740;DHT22;53653;52.188;8.602;2024-02-16T05:10:01;10.74;87.09
66740;DHT22;53653;52.188;8.602;2024-02-16T05:12:27;10.70;87.15
66740;DHT22;53653;52.188;8.602;2024-02-16T05:14:52;10.71;87.22
66740;DHT22;53653;52.188;8.602;2024-02-16T05:17:18;10.71;87.18
66740;DHT22;53653;52.188;8.602;2024-02-16T05:19:44;10.70;87.13
66740;DHT22;53653;52.188;8.602;2024-02-16T05:22:09;10.73;87.08
66740;DHT22;53653;52.188;8.602;2024-02-16T05:24:35;10.78;86.73
66740;DHT22;53653;52.188;8.602;2024-02-16T05:27:01;10.77;86.97
66740;DHT22;53653;52.188;8.602;2024-02-16T05:29:26;10.76;86.92
66740;DHT22;53653;52.188;8.602;2024-02-16T05:31:52;10.78;86.81
66740;DHT22;53653;52.188;8.602;2024-02-16T05:34:18;10.77;86.86
66740;DHT22;53653;52.188;8.602;2024-02-16T05:36:43;10.76;86.85
66740;DHT22;53653;52.188;8.602;2024-02-16T05:39:10;10.76;86.92
66740;DHT22;53653;52.188;8.602;2024-02-16T05:41:46;10.76;86.92
66740;DHT22;53653;52.188;8.602;2024-02-16T05:44:11;10.71;87.23
66740;DHT22;53653;52.188;8.602;2024-02-16T05:46:37;10.66;87.60
66740;DHT22;53653;52.188;8.602;2024-02-16T05:49:04;10.64;87.63
66740;DHT22;53653;52.188;8.602;2024-02-16T05:51:40;10.57;87.95
66740;DHT22;53653;52.188;8.602;2024-02-16T05:54:06;10.56;87.97
66740;DHT22;53653;52.188;8.602;2024-02-16T05:56:33;10.57;87.90
66740;DHT22;53653;52.188;8.602;2024-02-16T05:59:02;10.60;87.66
66740;DHT22;53653;52.188;8.602;2024-02-16T06:01:29;10.59;87.72
66740;DHT22;53653;52.188;8.602;2024-02-16T06:03:54;10.50;88.03
66740;DHT22;53653;52.188;8.602;2024-02-16T06:06:20;10.52;88.08
66740;DHT22;53653;52.188;8.602;2024-02-16T06:08:46;10.46;88.28
66740;DHT22;53653;52.188;8.602;2024-02-16T06:11:11;10.43;88.44
66740;DHT22;53653;52.188;8.602;2024-02-16T06:13:36;10.39;88.59
66740;DHT22;53653;52.188;8.602;2024-02-16T06:16:05;10.38;88.72
66740;DHT22;53653;52.188;8.602;2024-02-16T06:18:34;10.33;88.96
66740;DHT22;53653;52.188;8.602;2024-02-16T06:21:00;10.29;89.09
66740;DHT22;53653;52.188;8.602;2024-02-16T06:23:25;10.29;89.17
66740;DHT22;53653;52.188;8.602;2024-02-16T06:25:50;10.28;89.28
66740;DHT22;53653;52.188;8.602;2024-02-16T06:28:16;10.25;89.36
66740;DHT22;53653;52.188;8.602;2024-02-16T06:30:41;10.23;89.43
66740;DHT22;53653;52.188;8.602;2024-02-16T06:33:07;10.19;89.53
66740;DHT22;53653;52.188;8.602;2024-02-16T06:35:32;10.19;89.72
66740;DHT22;53653;52.188;8.602;2024-02-16T06:37:58;10.19;89.91
66740;DHT22;53653;52.188;8.602;2024-02-16T06:40:23;10.19;89.98
66740;DHT22;53653;52.188;8.602;2024-02-16T06:42:51;10.16;89.89
66740;DHT22;53653;52.188;8.602;2024-02-16T06:45:17;10.18;89.72
66740;DHT22;53653;52.188;8.602;2024-02-16T06:47:42;10.23;89.82
66740;DHT22;53653;52.188;8.602;2024-02-16T06:50:08;10.22;89.72
66740;DHT22;53653;52.188;8.602;2024-02-16T06:52:34;10.20;89.50
66740;DHT22;53653;52.188;8.602;2024-02-16T06:54:59;10.18;89.79
66740;DHT22;53653;52.188;8.602;2024-02-16T06:57:25;10.20;89.63
66740;DHT22;53653;52.188;8.602;2024-02-16T06:59:50;10.19;89.61
66740;DHT22;53653;52.188;8.602;2024-02-16T07:02:18;10.19;89.50
66740;DHT22;53653;52.188;8.602;2024-02-16T07:04:43;10.18;89.66
66740;DHT22;53653;52.188;8.602;2024-02-16T07:07:11;10.22;89.57
66740;DHT22;53653;52.188;8.602;2024-02-16T07:09:36;10.28;89.22
66740;DHT22;53653;52.188;8.602;2024-02-16T07:12:05;10.30;89.12
66740;DHT22;53653;52.188;8.602;2024-02-16T07:14:32;10.35;88.85
66740;DHT22;53653;52.188;8.602;2024-02-16T07:16:57;10.36;88.95
66740;DHT22;53653;52.188;8.602;2024-02-16T07:19:23;10.39;88.66
66740;DHT22;53653;52.188;8.602;2024-02-16T07:21:48;10.46;88.96
66740;DHT22;53653;52.188;8.602;2024-02-16T07:24:15;10.49;88.78
66740;DHT22;53653;52.188;8.602;2024-02-16T07:26:40;10.55;88.67
66740;DHT22;53653;52.188;8.602;2024-02-16T07:29:07;10.56;88.50
66740;DHT22;53653;52.188;8.602;2024-02-16T07:31:33;10.64;88.49
66740;DHT22;53653;52.188;8.602;2024-02-16T07:34:00;10.74;88.08
66740;DHT22;53653;52.188;8.602;2024-02-16T07:36:25;10.87;87.29
66740;DHT22;53653;52.188;8.602;2024-02-16T07:38:51;10.98;87.28
66740;DHT22;53653;52.188;8.602;2024-02-16T07:41:16;11.01;87.20
66740;DHT22;53653;52.188;8.602;2024-02-16T07:43:42;10.97;86.89
66740;DHT22;53653;52.188;8.602;2024-02-16T07:46:07;11.00;87.39
66740;DHT22;53653;52.188;8.602;2024-02-16T07:48:33;11.03;87.04
66740;DHT22;53653;52.188;8.602;2024-02-16T07:51:00;11.07;87.03
66740;DHT22;53653;52.188;8.602;2024-02-16T07:53:28;11.12;86.50
66740;DHT22;53653;52.188;8.602;2024-02-16T07:55:53;11.26;86.15
66740;DHT22;53653;52.188;8.602;2024-02-16T07:58:19;11.40;86.13
66740;DHT22;53653;52.188;8.602;2024-02-16T08:00:44;11.52;84.63
66740;DHT22;53653;52.188;8.602;2024-02-16T08:03:10;11.65;84.31
66740;DHT22;53653;52.188;8.602;2024-02-16T08:05:35;11.76;84.20
66740;DHT22;53653;52.188;8.602;2024-02-16T08:08:00;11.86;83.77
66740;DHT22;53653;52.188;8.602;2024-02-16T08:10:26;11.95;83.15
66740;DHT22;53653;52.188;8.602;2024-02-16T08:12:52;12.07;82.60
66740;DHT22;53653;52.188;8.602;2024-02-16T08:15:18;12.21;82.21
66740;DHT22;53653;52.188;8.602;2024-02-16T08:17:48;12.31;81.92
66740;DHT22;53653;52.188;8.602;2024-02-16T08:20:15;12.37;81.43
66740;DHT22;53653;52.188;8.602;2024-02-16T08:22:40;12.42;81.69
66740;DHT22;53653;52.188;8.602;2024-02-16T08:25:07;12.51;81.45
66740;DHT22;53653;52.188;8.602;2024-02-16T08:27:32;12.61;80.49
66740;DHT22;53653;52.188;8.602;2024-02-16T08:29:58;12.68;80.46
66740;DHT22;53653;52.188;8.602;2024-02-16T08:32:23;12.73;80.37
66740;DHT22;53653;52.188;8.602;2024-02-16T08:34:49;12.85;79.79
66740;DHT22;53653;52.188;8.602;2024-02-16T08:37:15;12.90;79.64
66740;DHT22;53653;52.188;8.602;2024-02-16T08:39:41;12.97;79.75
66740;DHT22;53653;52.188;8.602;2024-02-16T08:42:07;13.00;79.46
66740;DHT22;53653;52.188;8.602;2024-02-16T08:44:34;13.13;79.07
66740;DHT22;53653;52.188;8.602;2024-02-16T08:47:00;13.24;78.75
66740;DHT22;53653;52.188;8.602;2024-02-16T08:49:25;13.30;78.81
66740;DHT22;53653;52.188;8.602;2024-02-16T08:51:52;13.28;79.06
66740;DHT22;53653;52.188;8.602;2024-02-16T08:54:17;13.34;78.44
66740;DHT22;53653;52.188;8.602;2024-02-16T08:56:45;13.37;78.48
66740;DHT22;53653;52.188;8.602;2024-02-16T08:59:11;13.41;78.35
66740;DHT22;53653;52.188;8.602;2024-02-16T09:01:38;13.44;78.48
66740;DHT22;53653;52.188;8.602;2024-02-16T09:04:04;13.48;78.18
66740;DHT22;53653;52.188;8.602;2024-02-16T09:06:30;13.47;78.45
66740;DHT22;53653;52.188;8.602;2024-02-16T09:08:57;13.47;78.39
66740;DHT22;53653;52.188;8.602;2024-02-16T09:11:23;13.47;78.36
66740;DHT22;53653;52.188;8.602;2024-02-16T09:13:49;13.50;78.58
66740;DHT22;53653;52.188;8.602;2024-02-16T09:16:14;13.53;78.64
66740;DHT22;53653;52.188;8.602;2024-02-16T09:18:40;13.55;78.57
66740;DHT22;53653;52.188;8.602;2024-02-16T09:21:06;13.55;78.75
66740;DHT22;53653;52.188;8.602;2024-02-16T09:23:32;13.55;78.89
66740;DHT22;53653;52.188;8.602;2024-02-16T09:25:58;13.57;79.21
66740;DHT22;53653;52.188;8.602;2024-02-16T09:28:25;13.61;78.95
66740;DHT22;53653;52.188;8.602;2024-02-16T09:30:50;13.64;79.30
66740;DHT22;53653;52.188;8.602;2024-02-16T09:33:16;13.69;78.99
66740;DHT22;53653;52.188;8.602;2024-02-16T09:35:41;13.74;79.75
66740;DHT22;53653;52.188;8.602;2024-02-16T09:38:07;13.78;79.41
66740;DHT22;53653;52.188;8.602;2024-02-16T09:40:35;13.81;79.30
66740;DHT22;53653;52.188;8.602;2024-02-16T09:43:01;13.85;79.48
66740;DHT22;53653;52.188;8.602;2024-02-16T09:45:26;13.85;79.44
66740;DHT22;53653;52.188;8.602;2024-02-16T09:47:54;13.94;79.46
66740;DHT22;53653;52.188;8.602;2024-02-16T09:50:20;14.04;79.08
66740;DHT22;53653;52.188;8.602;2024-02-16T09:52:47;14.04;78.65
66740;DHT22;53653;52.188;8.602;2024-02-16T09:55:14;14.12;78.67
66740;DHT22;53653;52.188;8.602;2024-02-16T09:57:40;14.17;78.50
66740;DHT22;53653;52.188;8.602;2024-02-16T10:00:06;14.20;78.95
66740;DHT22;53653;52.188;8.602;2024-02-16T10:02:47;14.34;78.70
66740;DHT22;53653;52.188;8.602;2024-02-16T10:05:19;14.46;77.81
66740;DHT22;53653;52.188;8.602;2024-02-16T10:07:45;14.51;77.78
66740;DHT22;53653;52.188;8.602;2024-02-16T10:10:24;14.60;77.16
66740;DHT22;53653;52.188;8.602;2024-02-16T10:12:50;14.75;77.05
66740;DHT22;53653;52.188;8.602;2024-02-16T10:15:21;14.92;76.48
66740;DHT22;53653;52.188;8.602;2024-02-16T10:18:05;14.95;76.02
66740;DHT22;53653;52.188;8.602;2024-02-16T10:20:35;14.98;76.14
66740;DHT22;53653;52.188;8.602;2024-02-16T10:23:11;15.02;76.14
66740;DHT22;53653;52.188;8.602;2024-02-16T10:25:40;15.08;75.85
66740;DHT22;53653;52.188;8.602;2024-02-16T10:28:09;15.14;76.00
66740;DHT22;53653;52.188;8.602;2024-02-16T10:30:36;15.09;75.77
66740;DHT22;53653;52.188;8.602;2024-02-16T10:33:04;15.15;75.76
66740;DHT22;53653;52.188;8.602;2024-02-16T10:35:30;15.25;75.62
66740;DHT22;53653;52.188;8.602;2024-02-16T10:37:56;15.42;75.13
66740;DHT22;53653;52.188;8.602;2024-02-16T10:40:23;15.66;73.88
66740;DHT22;53653;52.188;8.602;2024-02-16T10:42:50;16.36;72.54
66740;DHT22;53653;52.188;8.602;2024-02-16T10:45:17;17.08;70.62
66740;DHT22;53653;52.188;8.602;2024-02-16T10:47:42;17.42;69.35
66740;DHT22;53653;52.188;8.602;2024-02-16T10:50:08;16.77;70.86
66740;DHT22;53653;52.188;8.602;2024-02-16T10:52:36;16.58;71.41
66740;DHT22;53653;52.188;8.602;2024-02-16T10:55:04;16.48;72.03
66740;DHT22;53653;52.188;8.602;2024-02-16T10:57:30;16.42;72.38
66740;DHT22;53653;52.188;8.602;2024-02-16T10:59:57;16.28;72.82
66740;DHT22;53653;52.188;8.602;2024-02-16T11:02:24;16.28;72.62
66740;DHT22;53653;52.188;8.602;2024-02-16T11:04:51;16.18;73.12
66740;DHT22;53653;52.188;8.602;2024-02-16T11:07:18;16.08;73.71
66740;DHT22;53653;52.188;8.602;2024-02-16T11:09:45;15.96;73.64
66740;DHT22;53653;52.188;8.602;2024-02-16T11:12:12;15.97;74.50
66740;DHT22;53653;52.188;8.602;2024-02-16T11:14:43;16.00;74.20
66740;DHT22;53653;52.188;8.602;2024-02-16T11:17:20;15.90;74.68
66740;DHT22;53653;52.188;8.602;2024-02-16T11:19:46;15.84;75.33
66740;DHT22;53653;52.188;8.602;2024-02-16T11:22:19;15.69;76.22
66740;DHT22;53653;52.188;8.602;2024-02-16T11:24:49;15.66;76.29
66740;DHT22;53653;52.188;8.602;2024-02-16T11:27:15;15.59;76.92
66740;DHT22;53653;52.188;8.602;2024-02-16T11:29:45;15.57;76.88
66740;DHT22;53653;52.188;8.602;2024-02-16T11:32:11;15.46;77.11
66740;DHT22;53653;52.188;8.602;2024-02-16T11:34:36;15.39;77.10
66740;DHT22;53653;52.188;8.602;2024-02-16T11:37:04;15.38;77.33
66740;DHT22;53653;52.188;8.602;2024-02-16T11:39:30;15.39;77.23
66740;DHT22;53653;52.188;8.602;2024-02-16T11:42:04;15.32;77.22
66740;DHT22;53653;52.188;8.602;2024-02-16T11:44:36;15.33;77.25
66740;DHT22;53653;52.188;8.602;2024-02-16T11:47:06;15.26;77.85
66740;DHT22;53653;52.188;8.602;2024-02-16T11:49:37;15.25;77.45
66740;DHT22;53653;52.188;8.602;2024-02-16T11:52:05;15.19;77.48
66740;DHT22;53653;52.188;8.602;2024-02-16T11:54:32;15.19;77.64
66740;DHT22;53653;52.188;8.602;2024-02-16T11:56:57;15.19;77.41
66740;DHT22;53653;52.188;8.602;2024-02-16T11:59:23;15.19;77.36
66740;DHT22;53653;52.188;8.602;2024-02-16T12:01:56;15.11;77.51
66740;DHT22;53653;52.188;8.602;2024-02-16T12:04:25;15.11;77.65
66740;DHT22;53653;52.188;8.602;2024-02-16T12:07:01;15.11;77.72
66740;DHT22;53653;52.188;8.602;2024-02-16T12:09:27;15.11;77.78
66740;DHT22;53653;52.188;8.602;2024-02-16T12:11:54;15.18;77.42
66740;DHT22;53653;52.188;8.602;2024-02-16T12:14:22;15.21;77.67
66740;DHT22;53653;52.188;8.602;2024-02-16T12:16:51;15.25;77.51
66740;DHT22;53653;52.188;8.602;2024-02-16T12:19:21;15.23;77.74
66740;DHT22;53653;52.188;8.602;2024-02-16T12:21:54;15.23;77.84
66740;DHT22;53653;52.188;8.602;2024-02-16T12:24:21;15.25;77.74
66740;DHT22;53653;52.188;8.602;2024-02-16T12:26:47;15.23;77.77
66740;DHT22;53653;52.188;8.602;2024-02-16T12:29:12;15.23;77.76
66740;DHT22;53653;52.188;8.602;2024-02-16T12:31:42;15.21;77.81
66740;DHT22;53653;52.188;8.602;2024-02-16T12:34:08;15.21;78.03
66740;DHT22;53653;52.188;8.602;2024-02-16T12:36:35;15.28;77.85
66740;DHT22;53653;52.188;8.602;2024-02-16T12:39:01;15.19;77.75
66740;DHT22;53653;52.188;8.602;2024-02-16T12:41:29;15.31;77.51
66740;DHT22;53653;52.188;8.602;2024-02-16T12:43:55;15.29;77.89
66740;DHT22;53653;52.188;8.602;2024-02-16T12:46:21;15.39;77.91
66740;DHT22;53653;52.188;8.602;2024-02-16T12:48:46;15.40;77.80
66740;DHT22;53653;52.188;8.602;2024-02-16T12:51:11;15.40;77.46
66740;DHT22;53653;52.188;8.602;2024-02-16T12:53:37;15.42;77.20
66740;DHT22;53653;52.188;8.602;2024-02-16T12:56:09;15.42;77.42
66740;DHT22;53653;52.188;8.602;2024-02-16T12:58:38;15.43;77.65
66740;DHT22;53653;52.188;8.602;2024-02-16T13:01:04;15.44;77.45
66740;DHT22;53653;52.188;8.602;2024-02-16T13:03:35;15.38;77.65
66740;DHT22;53653;52.188;8.602;2024-02-16T13:06:01;15.32;78.07
66740;DHT22;53653;52.188;8.602;2024-02-16T13:08:27;15.33;77.91
66740;DHT22;53653;52.188;8.602;2024-02-16T13:10:52;15.29;78.12
66740;DHT22;53653;52.188;8.602;2024-02-16T13:13:18;15.26;78.30
66740;DHT22;53653;52.188;8.602;2024-02-16T13:15:43;15.19;78.47
66740;DHT22;53653;52.188;8.602;2024-02-16T13:18:09;15.15;78.89
66740;DHT22;53653;52.188;8.602;2024-02-16T13:20:34;15.16;78.99
66740;DHT22;53653;52.188;8.602;2024-02-16T13:23:01;15.12;79.35
66740;DHT22;53653;52.188;8.602;2024-02-16T13:25:26;15.14;79.44
66740;DHT22;53653;52.188;8.602;2024-02-16T13:27:52;15.02;80.23
66740;DHT22;53653;52.188;8.602;2024-02-16T13:30:18;15.05;80.63
66740;DHT22;53653;52.188;8.602;2024-02-16T13:32:43;15.05;80.79
66740;DHT22;53653;52.188;8.602;2024-02-16T13:35:09;15.02;81.19
66740;DHT22;53653;52.188;8.602;2024-02-16T13:37:35;15.01;81.10
66740;DHT22;53653;52.188;8.602;2024-02-16T13:40:01;14.98;81.15
66740;DHT22;53653;52.188;8.602;2024-02-16T13:42:29;14.92;81.60
66740;DHT22;53653;52.188;8.602;2024-02-16T13:44:56;14.94;81.68
66740;DHT22;53653;52.188;8.602;2024-02-16T13:47:23;14.94;81.67
66740;DHT22;53653;52.188;8.602;2024-02-16T13:49:48;14.96;81.41
66740;DHT22;53653;52.188;8.602;2024-02-16T13:52:15;14.89;81.77
66740;DHT22;53653;52.188;8.602;2024-02-16T13:54:40;14.84;81.80
66740;DHT22;53653;52.188;8.602;2024-02-16T13:57:06;14.80;82.01
66740;DHT22;53653;52.188;8.602;2024-02-16T13:59:31;14.85;81.94
66740;DHT22;53653;52.188;8.602;2024-02-16T14:01:59;14.85;82.16
66740;DHT22;53653;52.188;8.602;2024-02-16T14:04:25;14.85;82.18
66740;DHT22;53653;52.188;8.602;2024-02-16T14:06:52;14.88;81.99
66740;DHT22;53653;52.188;8.602;2024-02-16T14:09:17;14.91;81.90
66740;DHT22;53653;52.188;8.602;2024-02-16T14:11:47;14.81;82.38
66740;DHT22;53653;52.188;8.602;2024-02-16T14:14:12;14.80;82.42
66740;DHT22;53653;52.188;8.602;2024-02-16T14:16:38;14.71;82.54
66740;DHT22;53653;52.188;8.602;2024-02-16T14:19:05;14.78;82.55
66740;DHT22;53653;52.188;8.602;2024-02-16T14:21:31;14.75;82.61
66740;DHT22;53653;52.188;8.602;2024-02-16T14:23:58;14.65;83.01
66740;DHT22;53653;52.188;8.602;2024-02-16T14:26:24;14.65;83.11
66740;DHT22;53653;52.188;8.602;2024-02-16T14:28:50;14.63;83.40
66740;DHT22;53653;52.188;8.602;2024-02-16T14:31:15;14.60;83.60
66740;DHT22;53653;52.188;8.602;2024-02-16T14:33:42;14.56;83.92
66740;DHT22;53653;52.188;8.602;2024-02-16T14:36:09;14.51;84.35
66740;DHT22;53653;52.188;8.602;2024-02-16T14:38:35;14.47;84.67
66740;DHT22;53653;52.188;8.602;2024-02-16T14:41:01;14.41;85.07
66740;DHT22;53653;52.188;8.602;2024-02-16T14:43:31;14.37;85.31
66740;DHT22;53653;52.188;8.602;2024-02-16T14:45:58;14.37;85.79
66740;DHT22;53653;52.188;8.602;2024-02-16T14:48:23;14.26;86.47
66740;DHT22;53653;52.188;8.602;2024-02-16T14:50:54;14.19;87.23
66740;DHT22;53653;52.188;8.602;2024-02-16T14:53:20;14.16;87.65
66740;DHT22;53653;52.188;8.602;2024-02-16T14:55:46;14.04;88.27
66740;DHT22;53653;52.188;8.602;2024-02-16T14:58:12;13.96;88.93
66740;DHT22;53653;52.188;8.602;2024-02-16T15:00:38;13.86;89.48
66740;DHT22;53653;52.188;8.602;2024-02-16T15:03:04;13.82;89.69
66740;DHT22;53653;52.188;8.602;2024-02-16T15:05:30;13.78;90.11
66740;DHT22;53653;52.188;8.602;2024-02-16T15:07:56;13.71;90.40
66740;DHT22;53653;52.188;8.602;2024-02-16T15:10:21;13.71;90.41
66740;DHT22;53653;52.188;8.602;2024-02-16T15:12:47;13.64;90.76
66740;DHT22;53653;52.188;8.602;2024-02-16T15:15:12;13.62;91.21
66740;DHT22;53653;52.188;8.602;2024-02-16T15:17:39;13.64;91.34
66740;DHT22;53653;52.188;8.602;2024-02-16T15:20:05;13.61;91.26
66740;DHT22;53653;52.188;8.602;2024-02-16T15:22:32;13.55;91.72
66740;DHT22;53653;52.188;8.602;2024-02-16T15:24:57;13.51;92.12